createdAt,value
2017-05-09T00:00:31.002Z,0
2017-05-09T00:01:11.428Z,0
2017-05-09T00:01:51.809Z,0
2017-05-09T00:02:32.268Z,0
2017-05-09T00:03:12.680Z,0
2017-05-09T00:03:53.097Z,0
2017-05-09T00:04:33.519Z,0
2017-05-09T00:05:13.923Z,0
2017-05-09T00:05:54.360Z,0
2017-05-09T00:06:34.801Z,0
2017-05-09T00:07:15.236Z,0
2017-05-09T00:07:55.696Z,0
2017-05-09T00:08:36.140Z,0
2017-05-09T00:09:16.539Z,0
2017-05-09T00:09:56.963Z,0
2017-05-09T00:10:37.358Z,0
2017-05-09T00:11:17.792Z,0
2017-05-09T00:11:58.216Z,0
2017-05-09T00:12:38.636Z,0
2017-05-09T00:13:19.057Z,0
2017-05-09T00:13:59.449Z,0
2017-05-09T00:14:39.879Z,0
2017-05-09T00:15:20.307Z,0
2017-05-09T00:16:00.678Z,0
2017-05-09T00:16:41.096Z,0
2017-05-09T00:17:21.478Z,0
2017-05-09T00:18:01.891Z,0
2017-05-09T00:18:42.345Z,0
2017-05-09T00:19:22.736Z,0
2017-05-09T00:20:03.144Z,0
2017-05-09T00:20:43.609Z,0
2017-05-09T00:21:24.028Z,0
2017-05-09T00:22:04.458Z,0
2017-05-09T00:22:44.843Z,0
2017-05-09T00:23:25.242Z,0
2017-05-09T00:24:05.640Z,0
2017-05-09T00:24:46.071Z,0
2017-05-09T00:25:26.525Z,0
2017-05-09T00:26:06.927Z,0
2017-05-09T00:26:47.321Z,0
2017-05-09T00:27:27.748Z,0
2017-05-09T00:28:08.175Z,0
2017-05-09T00:28:48.561Z,0
2017-05-09T00:29:28.987Z,0
2017-05-09T00:30:09.395Z,0
2017-05-09T00:30:49.811Z,0
2017-05-09T00:31:30.264Z,0
2017-05-09T00:32:10.684Z,0
2017-05-09T00:32:51.050Z,0
2017-05-09T00:33:31.476Z,0
2017-05-09T00:34:11.871Z,0
2017-05-09T00:36:31.455Z,0
2017-05-09T00:37:11.896Z,0
2017-05-09T00:37:52.350Z,0
2017-05-09T00:38:32.751Z,0
2017-05-09T00:39:13.156Z,0
2017-05-09T00:39:53.587Z,0
2017-05-09T00:40:34.018Z,0
2017-05-09T00:41:14.454Z,0
2017-05-09T00:41:54.866Z,0
2017-05-09T00:42:35.308Z,0
2017-05-09T00:43:15.685Z,0
2017-05-09T00:43:56.116Z,0
2017-05-09T00:44:36.532Z,0
2017-05-09T00:45:16.994Z,0
2017-05-09T00:45:57.372Z,0
2017-05-09T00:46:37.821Z,0
2017-05-09T00:47:18.200Z,0
2017-05-09T00:47:58.634Z,0
2017-05-09T00:48:39.045Z,0
2017-05-09T00:49:19.457Z,0
2017-05-09T00:49:59.861Z,0
2017-05-09T00:50:40.299Z,0
2017-05-09T00:51:20.684Z,0
2017-05-09T00:52:01.072Z,0
2017-05-09T00:52:41.512Z,0
2017-05-09T00:53:21.938Z,0
2017-05-09T00:54:02.395Z,0
2017-05-09T00:54:42.826Z,0
2017-05-09T00:55:23.244Z,0
2017-05-09T00:56:03.664Z,0
2017-05-09T00:56:44.085Z,0
2017-05-09T00:57:24.552Z,0
2017-05-09T00:58:04.978Z,0
2017-05-09T00:58:45.383Z,0
2017-05-09T00:59:25.811Z,0
2017-05-09T01:00:06.264Z,0
2017-05-09T01:00:46.646Z,0
2017-05-09T01:01:27.054Z,0
2017-05-09T01:03:39.921Z,0
2017-05-09T01:04:20.360Z,0
2017-05-09T01:05:00.777Z,0
2017-05-09T01:05:41.208Z,0
2017-05-09T01:06:21.609Z,0
2017-05-09T01:07:02.056Z,0
2017-05-09T01:07:42.474Z,0
2017-05-09T01:08:22.880Z,0
2017-05-09T01:09:03.294Z,0
2017-05-09T01:09:43.691Z,0
2017-05-09T01:10:24.142Z,0
2017-05-09T01:11:04.555Z,0
2017-05-09T01:13:22.679Z,0
2017-05-09T01:14:03.095Z,0
2017-05-09T01:14:43.496Z,0
2017-05-09T01:15:23.907Z,0
2017-05-09T01:16:04.350Z,0
2017-05-09T01:16:44.748Z,0
2017-05-09T01:19:12.879Z,0
2017-05-09T01:19:53.313Z,0
2017-05-09T01:20:33.720Z,0
2017-05-09T01:21:14.171Z,0
2017-05-09T01:21:54.569Z,0
2017-05-09T01:22:34.986Z,0
2017-05-09T01:23:15.390Z,0
2017-05-09T01:23:55.817Z,0
2017-05-09T01:24:36.254Z,0
2017-05-09T01:25:16.629Z,0
2017-05-09T01:25:57.054Z,0
2017-05-09T01:26:37.505Z,0
2017-05-09T01:27:17.906Z,0
2017-05-09T01:27:58.346Z,0
2017-05-09T01:28:38.764Z,0
2017-05-09T01:29:19.203Z,0
2017-05-09T01:29:59.602Z,0
2017-05-09T01:30:40.031Z,0
2017-05-09T01:31:20.442Z,0
2017-05-09T01:32:00.833Z,0
2017-05-09T01:32:41.240Z,0
2017-05-09T01:33:21.634Z,0
2017-05-09T01:34:02.058Z,0
2017-05-09T01:34:42.482Z,0
2017-05-09T01:35:22.886Z,0
2017-05-09T01:36:03.305Z,0
2017-05-09T01:36:43.720Z,0
2017-05-09T01:37:24.113Z,0
2017-05-09T01:38:04.556Z,0
2017-05-09T01:38:44.967Z,0
2017-05-09T01:39:25.419Z,0
2017-05-09T01:40:05.823Z,0
2017-05-09T01:40:46.241Z,0
2017-05-09T01:41:26.605Z,0
2017-05-09T01:42:07.029Z,0
2017-05-09T01:42:47.410Z,0
2017-05-09T01:43:27.833Z,0
2017-05-09T01:44:08.232Z,0
2017-05-09T01:44:48.649Z,0
2017-05-09T01:45:29.065Z,0
2017-05-09T01:46:09.490Z,0
2017-05-09T01:46:49.888Z,0
2017-05-09T01:47:30.328Z,0
2017-05-09T01:48:10.715Z,0
2017-05-09T01:48:51.131Z,0
2017-05-09T01:49:31.484Z,0
2017-05-09T01:50:11.939Z,0
2017-05-09T01:50:52.361Z,0
2017-05-09T01:51:32.728Z,0
2017-05-09T01:52:13.137Z,0
2017-05-09T01:52:53.554Z,0
2017-05-09T01:55:11.584Z,0
2017-05-09T01:55:52.008Z,0
2017-05-09T01:56:32.440Z,0
2017-05-09T01:57:12.830Z,0
2017-05-09T01:57:53.240Z,0
2017-05-09T01:58:33.669Z,0
2017-05-09T01:59:14.081Z,0
2017-05-09T01:59:54.505Z,0
2017-05-09T02:00:34.893Z,0
2017-05-09T02:01:15.301Z,0
2017-05-09T02:01:55.713Z,0
2017-05-09T02:02:36.140Z,0
2017-05-09T02:03:16.515Z,0
2017-05-09T02:05:34.588Z,0
2017-05-09T02:06:15.034Z,0
2017-05-09T02:06:55.432Z,0
2017-05-09T02:07:35.864Z,0
2017-05-09T02:08:16.303Z,0
2017-05-09T02:08:56.742Z,0
2017-05-09T02:09:37.150Z,0
2017-05-09T02:10:17.591Z,0
2017-05-09T02:10:57.996Z,0
2017-05-09T02:11:38.444Z,0
2017-05-09T02:12:18.847Z,0
2017-05-09T02:12:59.252Z,0
2017-05-09T02:13:39.648Z,0
2017-05-09T02:14:20.058Z,0
2017-05-09T02:15:00.487Z,0
2017-05-09T02:15:40.893Z,0
2017-05-09T02:16:21.334Z,0
2017-05-09T02:18:55.168Z,0
2017-05-09T02:19:35.590Z,0
2017-05-09T02:20:16.012Z,0
2017-05-09T02:20:56.428Z,0
2017-05-09T02:21:36.864Z,0
2017-05-09T02:22:17.287Z,0
2017-05-09T02:22:57.769Z,0
2017-05-09T02:23:38.164Z,0
2017-05-09T02:24:18.595Z,0
2017-05-09T02:24:59.023Z,0
2017-05-09T02:25:39.405Z,0
2017-05-09T02:26:19.812Z,0
2017-05-09T02:27:00.246Z,0
2017-05-09T02:27:40.637Z,0
2017-05-09T02:28:21.049Z,0
2017-05-09T02:29:01.475Z,0
2017-05-09T02:29:41.916Z,0
2017-05-09T02:30:22.391Z,0
2017-05-09T02:31:02.742Z,0
2017-05-09T02:31:43.169Z,0
2017-05-09T02:32:23.641Z,0
2017-05-09T02:33:04.074Z,0
2017-05-09T02:35:37.227Z,0
2017-05-09T02:36:17.643Z,0
2017-05-09T02:36:58.056Z,0
2017-05-09T02:37:38.507Z,0
2017-05-09T02:38:18.926Z,0
2017-05-09T02:38:59.337Z,0
2017-05-09T02:39:39.743Z,0
2017-05-09T02:40:20.139Z,0
2017-05-09T02:41:00.575Z,0
2017-05-09T02:41:40.956Z,0
2017-05-09T02:42:21.389Z,0
2017-05-09T02:43:01.837Z,0
2017-05-09T02:43:42.241Z,0
2017-05-09T02:44:22.688Z,0
2017-05-09T02:45:03.074Z,0
2017-05-09T02:45:43.484Z,0
2017-05-09T02:46:23.870Z,0
2017-05-09T02:47:04.319Z,0
2017-05-09T02:47:44.732Z,0
2017-05-09T02:48:25.132Z,0
2017-05-09T02:49:05.540Z,0
2017-05-09T02:49:45.972Z,0
2017-05-09T02:50:26.425Z,0
2017-05-09T02:51:06.796Z,0
2017-05-09T02:51:47.180Z,0
2017-05-09T02:52:27.598Z,0
2017-05-09T02:53:08.003Z,0
2017-05-09T02:53:48.412Z,0
2017-05-09T02:54:28.827Z,0
2017-05-09T02:55:09.259Z,0
2017-05-09T02:57:42.506Z,0
2017-05-09T02:58:22.926Z,0
2017-05-09T02:59:03.362Z,0
2017-05-09T02:59:43.812Z,0
2017-05-09T03:00:24.226Z,0
2017-05-09T03:02:42.341Z,0
2017-05-09T03:03:22.778Z,0
2017-05-09T03:04:03.204Z,0
2017-05-09T03:04:43.634Z,0
2017-05-09T03:05:24.029Z,0
2017-05-09T03:06:04.429Z,0
2017-05-09T03:06:44.873Z,0
2017-05-09T03:07:25.300Z,0
2017-05-09T03:08:05.719Z,0
2017-05-09T03:08:46.156Z,0
2017-05-09T03:09:26.546Z,0
2017-05-09T03:10:06.949Z,0
2017-05-09T03:10:47.400Z,0
2017-05-09T03:11:27.823Z,0
2017-05-09T03:12:08.214Z,0
2017-05-09T03:14:41.491Z,0
2017-05-09T03:15:21.915Z,0
2017-05-09T03:16:02.349Z,0
2017-05-09T03:18:15.264Z,0
2017-05-09T03:18:55.707Z,4
2017-05-09T03:19:36.138Z,4
2017-05-09T03:20:16.619Z,0
2017-05-09T03:20:56.997Z,0
2017-05-09T03:21:37.437Z,4
2017-05-09T03:22:17.859Z,4
2017-05-09T03:22:58.242Z,4
2017-05-09T03:23:38.647Z,4
2017-05-09T03:24:19.097Z,4
2017-05-09T03:24:59.516Z,4
2017-05-09T03:25:39.908Z,4
2017-05-09T03:26:20.349Z,8
2017-05-09T03:27:00.753Z,8
2017-05-09T03:27:41.211Z,8
2017-05-09T03:28:21.656Z,8
2017-05-09T03:29:02.061Z,8
2017-05-09T03:29:42.473Z,8
2017-05-09T03:30:22.852Z,12
2017-05-09T03:31:03.297Z,16
2017-05-09T03:31:43.683Z,16
2017-05-09T03:32:24.081Z,16
2017-05-09T03:33:04.475Z,16
2017-05-09T03:33:44.875Z,20
2017-05-09T03:34:25.312Z,20
2017-05-09T03:35:05.691Z,24
2017-05-09T03:35:46.110Z,24
2017-05-09T03:36:26.502Z,28
2017-05-09T03:37:06.932Z,28
2017-05-09T03:37:47.329Z,32
2017-05-09T03:38:27.754Z,36
2017-05-09T03:39:08.197Z,40
2017-05-09T03:39:48.631Z,40
2017-05-09T03:40:28.985Z,40
2017-05-09T03:41:09.419Z,40
2017-05-09T03:41:49.860Z,40
2017-05-09T03:42:30.290Z,44
2017-05-09T03:44:43.213Z,48
2017-05-09T03:45:23.636Z,52
2017-05-09T03:46:04.038Z,60
2017-05-09T03:48:01.953Z,84
2017-05-09T03:48:42.402Z,92
2017-05-09T03:49:22.808Z,96
2017-05-09T03:50:03.242Z,100
2017-05-09T03:50:43.648Z,108
2017-05-09T03:51:24.036Z,112
2017-05-09T03:52:04.465Z,116
2017-05-09T03:52:44.882Z,124
2017-05-09T03:53:25.800Z,132
2017-05-09T03:54:06.254Z,144
2017-05-09T03:54:46.678Z,148
2017-05-09T03:55:27.079Z,160
2017-05-09T03:56:07.478Z,176
2017-05-09T03:56:47.922Z,192
2017-05-09T03:57:28.316Z,188
2017-05-09T03:58:08.745Z,192
2017-05-09T03:58:49.201Z,200
2017-05-09T03:59:29.589Z,200
2017-05-09T04:00:09.985Z,204
2017-05-09T04:00:50.440Z,228
2017-05-09T04:01:30.939Z,248
2017-05-09T04:02:11.331Z,248
2017-05-09T04:04:24.417Z,244
2017-05-09T04:05:04.850Z,252
2017-05-09T04:07:37.925Z,264
2017-05-09T04:08:18.332Z,268
2017-05-09T04:08:58.721Z,276
2017-05-09T04:09:39.154Z,284
2017-05-09T04:10:19.577Z,296
2017-05-09T04:10:59.985Z,300
2017-05-09T04:11:40.389Z,296
2017-05-09T04:12:20.813Z,304
2017-05-09T04:13:01.225Z,320
2017-05-09T04:13:41.623Z,348
2017-05-09T04:15:39.633Z,344
2017-05-09T04:16:20.055Z,336
2017-05-09T04:17:00.469Z,344
2017-05-09T04:17:40.904Z,348
2017-05-09T04:18:21.310Z,356
2017-05-09T04:19:01.748Z,376
2017-05-09T04:19:42.171Z,404
2017-05-09T04:20:22.590Z,420
2017-05-09T04:22:50.651Z,372
2017-05-09T04:23:31.081Z,380
2017-05-09T04:24:11.496Z,408
2017-05-09T04:24:51.933Z,464
2017-05-09T04:25:32.355Z,540
2017-05-09T04:26:12.755Z,608
2017-05-09T04:26:53.157Z,636
2017-05-09T04:27:33.573Z,656
2017-05-09T04:28:14.010Z,680
2017-05-09T04:28:54.373Z,704
2017-05-09T04:29:34.778Z,784
2017-05-09T04:30:15.252Z,828
2017-05-09T04:30:55.675Z,832
2017-05-09T04:31:36.061Z,816
2017-05-09T04:32:16.469Z,776
2017-05-09T04:32:56.932Z,796
2017-05-09T04:33:37.319Z,784
2017-05-09T04:34:17.761Z,748
2017-05-09T04:34:58.139Z,724
2017-05-09T04:35:38.570Z,696
2017-05-09T04:36:19.032Z,664
2017-05-09T04:36:59.447Z,612
2017-05-09T04:37:39.868Z,576
2017-05-09T04:38:20.278Z,588
2017-05-09T04:39:00.743Z,656
2017-05-09T04:39:41.125Z,740
2017-05-09T04:40:21.520Z,836
2017-05-09T04:41:01.990Z,980
2017-05-09T04:41:42.372Z,1144
2017-05-09T04:42:22.800Z,1308
2017-05-09T04:43:03.283Z,1440
2017-05-09T04:43:43.675Z,1476
2017-05-09T04:44:24.094Z,1400
2017-05-09T04:45:04.509Z,1240
2017-05-09T04:47:02.437Z,860
2017-05-09T04:47:42.856Z,820
2017-05-09T04:48:23.300Z,808
2017-05-09T04:49:03.736Z,804
2017-05-09T04:49:44.149Z,804
2017-05-09T04:50:24.548Z,884
2017-05-09T04:51:04.997Z,1032
2017-05-09T04:51:45.405Z,1164
2017-05-09T04:53:43.377Z,1160
2017-05-09T04:54:23.778Z,1084
2017-05-09T04:55:04.202Z,1012
2017-05-09T04:55:44.608Z,1004
2017-05-09T04:56:25.051Z,1112
2017-05-09T04:57:05.452Z,1288
2017-05-09T04:57:45.859Z,1428
2017-05-09T04:58:26.249Z,1532
2017-05-09T04:59:06.694Z,1572
2017-05-09T04:59:47.133Z,1568
2017-05-09T05:00:27.550Z,1592
2017-05-09T05:01:07.983Z,1688
2017-05-09T05:01:48.419Z,1756
2017-05-09T05:02:28.843Z,1772
2017-05-09T05:03:09.237Z,1868
2017-05-09T05:03:49.653Z,1840
2017-05-09T05:04:30.076Z,1616
2017-05-09T05:05:10.468Z,1372
2017-05-09T05:05:50.881Z,1288
2017-05-09T05:06:31.285Z,1264
2017-05-09T05:07:11.708Z,1220
2017-05-09T05:07:52.109Z,1176
2017-05-09T05:08:32.513Z,1144
2017-05-09T05:09:12.923Z,1068
2017-05-09T05:09:53.313Z,1128
2017-05-09T05:10:33.718Z,1064
2017-05-09T05:11:14.146Z,1016
2017-05-09T05:11:54.555Z,1012
2017-05-09T05:12:34.958Z,1000
2017-05-09T05:13:15.390Z,1020
2017-05-09T05:13:55.809Z,1072
2017-05-09T05:14:36.187Z,1156
2017-05-09T05:15:16.618Z,1320
2017-05-09T05:15:57.033Z,1568
2017-05-09T05:16:37.424Z,1708
2017-05-09T05:17:17.877Z,1712
2017-05-09T05:17:58.349Z,1704
2017-05-09T05:18:38.766Z,2200
2017-05-09T05:19:20.907Z,2544
2017-05-09T05:20:01.328Z,2648
2017-05-09T05:20:41.846Z,2648
2017-05-09T05:22:57.767Z,3116
2017-05-09T05:23:38.195Z,3468
2017-05-09T05:24:18.619Z,3724
2017-05-09T05:24:59.062Z,3744
2017-05-09T05:25:39.475Z,3604
2017-05-09T05:26:19.885Z,3444
2017-05-09T05:27:00.317Z,3452
2017-05-09T05:27:40.732Z,3604
2017-05-09T05:28:21.083Z,3628
2017-05-09T05:29:01.528Z,3432
2017-05-09T05:29:41.929Z,3376
2017-05-09T05:30:22.338Z,3292
2017-05-09T05:31:02.789Z,3172
2017-05-09T05:31:43.219Z,2976
2017-05-09T05:32:23.647Z,2764
2017-05-09T05:34:39.411Z,2684
2017-05-09T05:35:19.855Z,2796
2017-05-09T05:36:00.295Z,2680
2017-05-09T05:36:40.734Z,2520
2017-05-09T05:37:21.186Z,2632
2017-05-09T05:38:02.520Z,2924
2017-05-09T05:38:42.955Z,3264
2017-05-09T05:39:23.371Z,3488
2017-05-09T05:40:03.788Z,3600
2017-05-09T05:40:44.208Z,3776
2017-05-09T05:41:24.636Z,3896
2017-05-09T05:42:05.047Z,3564
2017-05-09T05:42:45.500Z,3176
2017-05-09T05:43:25.946Z,2944
2017-05-09T05:44:06.343Z,2700
2017-05-09T05:44:46.725Z,2628
2017-05-09T05:45:27.190Z,2900
2017-05-09T05:46:07.556Z,3480
2017-05-09T05:46:47.963Z,3876
2017-05-09T05:47:28.448Z,3716
2017-05-09T05:48:08.842Z,3164
2017-05-09T05:48:49.286Z,2620
2017-05-09T05:49:29.719Z,2508
2017-05-09T05:50:10.185Z,3204
2017-05-09T05:50:50.550Z,4016
2017-05-09T05:51:30.975Z,4224
2017-05-09T05:52:11.377Z,4192
2017-05-09T05:52:51.827Z,4340
2017-05-09T05:53:32.227Z,4256
2017-05-09T05:54:12.596Z,3784
2017-05-09T05:54:53.051Z,3024
2017-05-09T05:55:33.404Z,2404
2017-05-09T05:56:13.836Z,2436
2017-05-09T05:56:54.266Z,2688
2017-05-09T05:57:34.662Z,2640
2017-05-09T05:58:15.074Z,2612
2017-05-09T05:58:55.488Z,3012
2017-05-09T05:59:35.928Z,3524
2017-05-09T06:00:16.326Z,3724
2017-05-09T06:00:56.739Z,4040
2017-05-09T06:01:37.120Z,4020
2017-05-09T06:02:17.549Z,4248
2017-05-09T06:02:57.986Z,4468
2017-05-09T06:03:38.496Z,5040
2017-05-09T06:04:18.857Z,6120
2017-05-09T06:05:00.450Z,6404
2017-05-09T06:05:40.850Z,5800
2017-05-09T06:06:21.240Z,4776
2017-05-09T06:07:01.677Z,4204
2017-05-09T06:07:42.086Z,3708
2017-05-09T06:08:22.598Z,3428
2017-05-09T06:09:02.904Z,3396
2017-05-09T06:09:43.349Z,3576
2017-05-09T06:10:23.742Z,3668
2017-05-09T06:11:04.182Z,3464
2017-05-09T06:11:44.547Z,3908
2017-05-09T06:12:25.023Z,5184
2017-05-09T06:13:05.437Z,5776
2017-05-09T06:13:45.867Z,6436
2017-05-09T06:14:26.298Z,6784
2017-05-09T06:15:06.718Z,6828
2017-05-09T06:15:47.110Z,6788
2017-05-09T06:16:27.527Z,7040
2017-05-09T06:17:07.957Z,7764
2017-05-09T06:17:48.363Z,8944
2017-05-09T06:18:28.775Z,9008
2017-05-09T06:19:09.224Z,8276
2017-05-09T06:19:49.681Z,7244
2017-05-09T06:20:30.065Z,6588
2017-05-09T06:21:10.442Z,6040
2017-05-09T06:21:50.843Z,5264
2017-05-09T06:22:31.309Z,4784
2017-05-09T06:23:11.687Z,4964
2017-05-09T06:23:52.086Z,5192
2017-05-09T06:24:32.499Z,5080
2017-05-09T06:25:12.927Z,4960
2017-05-09T06:25:53.340Z,4756
2017-05-09T06:26:33.745Z,4584
2017-05-09T06:28:46.823Z,5904
2017-05-09T06:29:27.237Z,6260
2017-05-09T06:30:07.663Z,6700
2017-05-09T06:30:48.142Z,7972
2017-05-09T06:31:28.548Z,8084
2017-05-09T06:32:08.943Z,7836
2017-05-09T06:32:49.370Z,9156
2017-05-09T06:33:29.775Z,9848
2017-05-09T06:34:10.273Z,9300
2017-05-09T06:34:50.662Z,10656
2017-05-09T06:35:31.067Z,10700
2017-05-09T06:36:11.501Z,10744
2017-05-09T06:36:51.935Z,11992
2017-05-09T06:37:32.333Z,11780
2017-05-09T06:38:12.741Z,10132
2017-05-09T06:38:53.160Z,9956
2017-05-09T06:39:33.599Z,9984
2017-05-09T06:42:01.585Z,11668
2017-05-09T06:42:42.030Z,10984
2017-05-09T06:43:22.429Z,14528
2017-05-09T06:44:02.818Z,18464
2017-05-09T06:44:43.219Z,18496
2017-05-09T06:45:23.684Z,17952
2017-05-09T06:46:04.017Z,15316
2017-05-09T06:46:44.479Z,12612
2017-05-09T06:47:24.846Z,11124
2017-05-09T06:48:05.324Z,10804
2017-05-09T06:48:45.775Z,11376
2017-05-09T06:49:26.237Z,12432
2017-05-09T06:50:06.654Z,12996
2017-05-09T06:50:47.049Z,13904
2017-05-09T06:51:27.450Z,16400
2017-05-09T06:52:07.881Z,18656
2017-05-09T06:52:48.287Z,18464
2017-05-09T06:53:28.672Z,21184
2017-05-09T06:54:09.138Z,21728
2017-05-09T06:54:49.540Z,22976
2017-05-09T06:55:29.975Z,20480
2017-05-09T06:56:10.404Z,18656
2017-05-09T06:56:50.881Z,18016
2017-05-09T06:57:31.311Z,16848
2017-05-09T06:58:11.690Z,15916
2017-05-09T06:58:52.183Z,16588
2017-05-09T06:59:32.568Z,16532
2017-05-09T07:00:12.976Z,13980
2017-05-09T07:00:53.417Z,11984
2017-05-09T07:01:33.825Z,10076
2017-05-09T07:02:14.304Z,10040
2017-05-09T07:02:54.700Z,12136
2017-05-09T07:03:35.113Z,16480
2017-05-09T07:04:15.612Z,15404
2017-05-09T07:04:56.014Z,13392
2017-05-09T07:05:36.445Z,12200
2017-05-09T07:06:16.860Z,11372
2017-05-09T07:06:57.301Z,11980
2017-05-09T07:07:37.764Z,13980
2017-05-09T07:08:18.191Z,14920
2017-05-09T07:08:58.606Z,14548
2017-05-09T07:09:39.021Z,13340
2017-05-09T07:10:19.451Z,12320
2017-05-09T07:10:59.835Z,11664
2017-05-09T07:11:40.276Z,11072
2017-05-09T07:12:20.762Z,11704
2017-05-09T07:13:01.164Z,13460
2017-05-09T07:13:41.636Z,16088
2017-05-09T07:16:09.648Z,56512
2017-05-09T07:16:50.078Z,44320
2017-05-09T07:17:30.500Z,16176
2017-05-09T07:18:10.921Z,15228
2017-05-09T07:18:52.272Z,19136
2017-05-09T07:19:32.704Z,65728
2017-05-09T07:21:45.750Z,16008
2017-05-09T07:22:26.184Z,13876
2017-05-09T07:23:06.654Z,11968
2017-05-09T07:23:47.105Z,11004
2017-05-09T07:24:27.535Z,10576
2017-05-09T07:25:07.959Z,13248
2017-05-09T07:25:48.405Z,35136
2017-05-09T07:26:28.826Z,59456
2017-05-09T07:27:09.250Z,66304
2017-05-09T07:27:50.478Z,55328
2017-05-09T07:30:24.321Z,14204
2017-05-09T07:31:04.764Z,13556
2017-05-09T07:31:45.175Z,14568
2017-05-09T07:32:25.600Z,15320
2017-05-09T07:33:06.042Z,51072
2017-05-09T07:33:46.428Z,57984
2017-05-09T07:34:26.843Z,59104
2017-05-09T07:35:07.265Z,45952
2017-05-09T07:35:47.675Z,58880
2017-05-09T07:36:28.115Z,60832
2017-05-09T07:38:41.061Z,66816
2017-05-09T07:39:21.487Z,41632
2017-05-09T07:40:01.919Z,63168
2017-05-09T07:42:19.754Z,11868
2017-05-09T07:43:00.184Z,11000
2017-05-09T07:43:40.636Z,10644
2017-05-09T07:44:21.067Z,9916
2017-05-09T07:45:01.511Z,9184
2017-05-09T07:45:41.941Z,10704
2017-05-09T07:46:22.326Z,12028
2017-05-09T07:47:02.764Z,18304
2017-05-09T07:47:43.159Z,53952
2017-05-09T07:48:23.579Z,21440
2017-05-09T07:49:04.001Z,16712
2017-05-09T07:51:22.001Z,57248
2017-05-09T07:52:04.038Z,63968
2017-05-09T07:52:44.425Z,72384
2017-05-09T07:53:24.830Z,19392
2017-05-09T07:54:05.243Z,20768
2017-05-09T07:54:45.671Z,23552
2017-05-09T07:55:26.133Z,42400
2017-05-09T07:56:06.535Z,60736
2017-05-09T07:56:47.052Z,64320
2017-05-09T07:57:27.481Z,71232
2017-05-09T07:58:07.906Z,71776
2017-05-09T07:58:48.339Z,64640
2017-05-09T07:59:28.778Z,41632
2017-05-09T08:00:09.271Z,67232
2017-05-09T08:00:49.740Z,68384
2017-05-09T08:01:30.134Z,69088
2017-05-09T08:02:10.580Z,67744
2017-05-09T08:02:51.015Z,67744
2017-05-09T08:03:31.406Z,73408
2017-05-09T08:05:29.267Z,83648
2017-05-09T08:06:09.702Z,79744
2017-05-09T08:06:50.131Z,82016
2017-05-09T08:07:30.571Z,37920
2017-05-09T08:09:43.575Z,12628
2017-05-09T08:10:24.043Z,11880
2017-05-09T08:11:04.486Z,12440
2017-05-09T08:11:44.928Z,13972
2017-05-09T08:12:25.411Z,16008
2017-05-09T08:13:05.833Z,17376
2017-05-09T08:13:46.244Z,17856
2017-05-09T08:14:26.691Z,18336
2017-05-09T08:16:54.921Z,20608
2017-05-09T08:17:35.354Z,22400
2017-05-09T08:18:15.804Z,20096
2017-05-09T08:18:56.255Z,31104
2017-05-09T08:19:36.689Z,13560
2017-05-09T08:20:17.138Z,11772
2017-05-09T08:20:57.556Z,12080
2017-05-09T08:21:37.985Z,12856
2017-05-09T08:22:18.409Z,14968
2017-05-09T08:22:58.859Z,22784
2017-05-09T08:23:39.279Z,85728
2017-05-09T08:24:19.729Z,82848
2017-05-09T08:25:00.145Z,69024
2017-05-09T08:27:33.260Z,87904
2017-05-09T08:28:13.731Z,91872
2017-05-09T08:28:54.161Z,93824
2017-05-09T08:29:34.612Z,95072
2017-05-09T08:30:15.049Z,92128
2017-05-09T08:30:55.486Z,70592
2017-05-09T08:31:35.941Z,52384
2017-05-09T08:32:16.396Z,15668
2017-05-09T08:32:56.823Z,12004
2017-05-09T08:34:54.737Z,9332
2017-05-09T08:35:35.179Z,9252
2017-05-09T08:36:15.613Z,8776
2017-05-09T08:36:56.034Z,9092
2017-05-09T08:37:36.453Z,10096
2017-05-09T08:39:34.253Z,99680
2017-05-09T08:40:14.694Z,103680
2017-05-09T08:40:55.112Z,97984
2017-05-09T08:41:35.533Z,98464
2017-05-09T08:42:15.960Z,95872
2017-05-09T08:42:56.365Z,106016
2017-05-09T08:43:36.835Z,107744
2017-05-09T08:44:17.304Z,115648
2017-05-09T08:44:57.739Z,111328
2017-05-09T08:45:38.198Z,93472
2017-05-09T08:46:18.667Z,83296
2017-05-09T08:46:59.090Z,78816
2017-05-09T08:51:14.676Z,31584
2017-05-09T08:51:55.131Z,62848
2017-05-09T08:52:35.610Z,104256
2017-05-09T08:53:16.019Z,103264
2017-05-09T08:53:56.478Z,105504
2017-05-09T08:54:36.901Z,59232
2017-05-09T08:55:17.318Z,106944
2017-05-09T08:55:57.790Z,86112
2017-05-09T08:56:38.254Z,87808
2017-05-09T08:57:18.689Z,56288
2017-05-09T08:57:59.169Z,17632
2017-05-09T08:58:39.600Z,15096
2017-05-09T08:59:20.054Z,15108
2017-05-09T09:00:00.501Z,14980
2017-05-09T09:00:40.955Z,14836
2017-05-09T09:01:21.389Z,14964
2017-05-09T09:02:01.803Z,15468
2017-05-09T09:02:42.247Z,15476
2017-05-09T09:03:22.678Z,15720
2017-05-09T09:04:03.132Z,18848
2017-05-09T09:04:43.530Z,34912
2017-05-09T09:05:23.993Z,42368
2017-05-09T09:06:04.416Z,24288
2017-05-09T09:06:44.845Z,30496
2017-05-09T09:07:25.292Z,22720
2017-05-09T09:08:05.693Z,18656
2017-05-09T09:08:46.117Z,15124
2017-05-09T09:09:26.582Z,13580
2017-05-09T09:10:07.007Z,12120
2017-05-09T09:10:47.431Z,11004
2017-05-09T09:11:27.872Z,10500
2017-05-09T09:12:08.323Z,10180
2017-05-09T09:12:48.733Z,9960
2017-05-09T09:13:29.127Z,9864
2017-05-09T09:14:09.532Z,10320
2017-05-09T09:14:50.054Z,10832
2017-05-09T09:15:30.486Z,11424
2017-05-09T09:16:10.941Z,12352
2017-05-09T09:16:51.342Z,13568
2017-05-09T09:17:31.778Z,14792
2017-05-09T09:18:12.185Z,15940
2017-05-09T09:18:52.619Z,17248
2017-05-09T09:19:33.083Z,18432
2017-05-09T09:20:13.514Z,20160
2017-05-09T09:20:53.964Z,22816
2017-05-09T09:21:34.388Z,26432
2017-05-09T09:23:32.179Z,33440
2017-05-09T09:24:14.180Z,75744
2017-05-09T09:24:54.667Z,94592
2017-05-09T09:25:35.128Z,105536
2017-05-09T09:26:15.540Z,120544
2017-05-09T09:26:55.964Z,117184
2017-05-09T09:27:36.446Z,116032
2017-05-09T09:28:16.858Z,118528
2017-05-09T09:28:57.341Z,120576
2017-05-09T09:29:37.745Z,117984
2017-05-09T09:30:18.203Z,117088
2017-05-09T09:30:58.623Z,121216
2017-05-09T09:31:39.063Z,119520
2017-05-09T09:32:19.459Z,113376
2017-05-09T09:32:59.882Z,92000
2017-05-09T09:33:40.329Z,82016
2017-05-09T09:34:20.785Z,115904
2017-05-09T09:35:01.224Z,118144
2017-05-09T09:35:41.689Z,115968
2017-05-09T09:36:22.157Z,116096
2017-05-09T09:37:02.595Z,120096
2017-05-09T09:37:43.057Z,119808
2017-05-09T09:38:23.503Z,117984
2017-05-09T09:39:03.931Z,114496
2017-05-09T09:39:44.365Z,111296
2017-05-09T09:40:24.817Z,113568
2017-05-09T09:41:05.281Z,116544
2017-05-09T09:41:45.711Z,112352
2017-05-09T09:42:26.146Z,113728
2017-05-09T09:43:06.606Z,103808
2017-05-09T09:43:47.066Z,106624
2017-05-09T09:44:27.539Z,111040
2017-05-09T09:45:07.968Z,106848
2017-05-09T09:45:48.378Z,106624
2017-05-09T09:46:28.788Z,106336
2017-05-09T09:47:09.249Z,111232
2017-05-09T09:47:49.693Z,109792
2017-05-09T09:48:30.114Z,109152
2017-05-09T09:49:10.588Z,109312
2017-05-09T09:49:51.005Z,111936
2017-05-09T09:50:31.454Z,110880
2017-05-09T09:53:04.445Z,106944
2017-05-09T09:53:44.901Z,109824
2017-05-09T09:54:25.359Z,105280
2017-05-09T09:55:05.854Z,102816
2017-05-09T09:55:46.323Z,101504
2017-05-09T09:56:26.777Z,104480
2017-05-09T09:57:07.180Z,103552
2017-05-09T09:57:47.646Z,106560
2017-05-09T09:58:28.061Z,81792
2017-05-09T09:59:08.464Z,32160
2017-05-09T09:59:48.893Z,33600
2017-05-09T10:02:17.109Z,28544
2017-05-09T10:02:57.553Z,34752
2017-05-09T10:03:37.965Z,37600
2017-05-09T10:04:18.424Z,45120
2017-05-09T10:04:58.859Z,39904
2017-05-09T10:05:39.320Z,53024
2017-05-09T10:06:19.724Z,82592
2017-05-09T10:07:00.184Z,83616
2017-05-09T10:07:40.641Z,124832
2017-05-09T10:08:21.053Z,116608
2017-05-09T10:09:01.494Z,112640
2017-05-09T10:09:41.911Z,109728
2017-05-09T10:12:00.805Z,111136
2017-05-09T10:12:41.253Z,105824
2017-05-09T10:13:21.696Z,67840
2017-05-09T10:15:34.611Z,101664
2017-05-09T10:16:15.031Z,101856
2017-05-09T10:16:55.479Z,103360
2017-05-09T10:17:35.924Z,104608
2017-05-09T10:18:16.371Z,107872
2017-05-09T10:18:56.831Z,107488
2017-05-09T10:19:37.247Z,105280
2017-05-09T10:22:10.567Z,107936
2017-05-09T10:22:51.060Z,47712
2017-05-09T10:23:31.469Z,38656
2017-05-09T10:24:11.905Z,56320